createdAt,value
2023-01-10T00:00:29.849Z,5.30
2023-01-10T00:02:56.544Z,5.30
2023-01-10T00:05:23.453Z,5.30
2023-01-10T00:07:50.089Z,5.40
2023-01-10T00:10:33.206Z,5.40
2023-01-10T00:13:17.811Z,5.50
2023-01-10T00:15:45.136Z,5.50
2023-01-10T00:21:03.680Z,5.60
2023-01-10T00:23:30.348Z,5.60
2023-01-10T00:26:00.033Z,5.60
2023-01-10T00:28:26.860Z,5.70
2023-01-10T00:31:05.740Z,5.70
2023-01-10T00:33:42.133Z,5.80
2023-01-10T00:38:50.964Z,5.90
2023-01-10T00:41:17.625Z,5.90
2023-01-10T00:43:56.490Z,5.90
2023-01-10T00:46:31.691Z,5.90
2023-01-10T00:51:38.919Z,5.80
2023-01-10T00:54:05.646Z,5.80
2023-01-10T00:56:32.338Z,5.80
2023-01-10T00:59:14.126Z,5.80
2023-01-10T01:01:40.865Z,5.80
2023-01-10T01:04:11.267Z,5.80
2023-01-10T01:06:37.906Z,5.80
2023-01-10T01:09:19.877Z,5.80
2023-01-10T01:11:46.945Z,5.80
2023-01-10T01:14:13.586Z,5.90
2023-01-10T01:16:52.628Z,5.90
2023-01-10T01:19:19.333Z,5.80
2023-01-10T01:21:51.170Z,5.90
2023-01-10T01:24:25.531Z,5.80
2023-01-10T01:26:52.202Z,5.80
2023-01-10T01:29:18.831Z,5.80
2023-01-10T01:31:46.207Z,5.80
2023-01-10T01:34:25.375Z,5.80
2023-01-10T01:37:09.976Z,5.70
2023-01-10T01:39:36.726Z,5.70
2023-01-10T01:42:05.208Z,5.70
2023-01-10T01:44:36.173Z,5.70
2023-01-10T01:50:48.565Z,5.70
2023-01-10T01:56:36.329Z,5.70
2023-01-10T01:59:11.510Z,5.70
2023-01-10T02:01:49.018Z,5.70
2023-01-10T02:04:29.778Z,5.70
2023-01-10T02:07:04.021Z,5.80
2023-01-10T02:09:59.250Z,5.80
2023-01-10T02:12:35.719Z,5.90
2023-01-10T02:15:03.595Z,5.90
2023-01-10T02:17:42.639Z,6.00
2023-01-10T02:20:15.039Z,6.00
2023-01-10T02:23:19.876Z,6.00
2023-01-10T02:26:32.638Z,6.00
2023-01-10T02:28:59.349Z,6.10
2023-01-10T02:31:34.783Z,6.10
2023-01-10T02:34:20.051Z,6.10
2023-01-10T02:37:29.238Z,6.10
2023-01-10T02:40:08.095Z,6.10
2023-01-10T02:42:55.452Z,6.10
2023-01-10T02:45:30.628Z,6.10
2023-01-10T02:47:58.161Z,6.00
2023-01-10T02:50:39.090Z,6.00
2023-01-10T02:53:21.033Z,6.10
2023-01-10T02:56:16.171Z,6.10
2023-01-10T02:59:21.111Z,6.10
2023-01-10T03:02:13.210Z,6.10
2023-01-10T03:08:25.868Z,6.10
2023-01-10T03:11:11.973Z,6.10
2023-01-10T03:14:20.072Z,6.10
2023-01-10T03:20:35.308Z,6.20
2023-01-10T03:23:05.716Z,6.20
2023-01-10T03:25:35.570Z,6.20
2023-01-10T03:28:12.546Z,6.20
2023-01-10T03:30:52.286Z,6.20
2023-01-10T03:33:25.513Z,6.30
2023-01-10T03:36:15.992Z,6.30
2023-01-10T03:38:56.177Z,6.30
2023-01-10T03:41:50.311Z,6.30
2023-01-10T03:44:35.149Z,6.30
2023-01-10T03:47:09.604Z,6.30
2023-01-10T03:49:39.183Z,6.30
2023-01-10T03:52:15.818Z,6.20
2023-01-10T03:54:54.921Z,6.20
2023-01-10T03:57:23.301Z,6.20
2023-01-10T04:00:02.434Z,6.20
2023-01-10T04:02:31.345Z,6.10
2023-01-10T04:04:58.969Z,6.10
2023-01-10T04:07:26.389Z,6.10
2023-01-10T04:09:53.289Z,6.00
2023-01-10T04:12:20.051Z,6.00
2023-01-10T04:15:00.870Z,6.00
2023-01-10T04:20:22.913Z,5.90
2023-01-10T04:22:55.660Z,5.80
2023-01-10T04:25:31.526Z,5.80
2023-01-10T04:28:10.462Z,5.70
2023-01-10T04:30:51.087Z,5.70
2023-01-10T04:33:47.325Z,5.70
2023-01-10T04:36:26.376Z,5.70
2023-01-10T04:39:03.212Z,5.60
2023-01-10T04:41:37.805Z,5.60
2023-01-10T04:44:13.074Z,5.60
2023-01-10T04:46:39.718Z,5.60
2023-01-10T04:49:15.149Z,5.50
2023-01-10T04:51:44.249Z,5.50
2023-01-10T04:54:11.169Z,5.50
2023-01-10T04:59:18.568Z,5.40
2023-01-10T05:01:45.481Z,5.30
2023-01-10T05:04:27.251Z,5.30
2023-01-10T05:06:53.996Z,5.20
2023-01-10T05:09:30.014Z,5.10
2023-01-10T05:12:19.212Z,5.10
2023-01-10T05:15:05.090Z,5.00
2023-01-10T05:17:32.094Z,5.00
2023-01-10T05:19:58.916Z,5.00
2023-01-10T05:22:38.338Z,5.00
2023-01-10T05:25:13.937Z,5.00
2023-01-10T05:30:23.910Z,5.10
2023-01-10T05:32:50.665Z,5.00
2023-01-10T05:35:42.915Z,5.00
2023-01-10T05:38:21.662Z,5.00
2023-01-10T05:40:48.452Z,5.00
2023-01-10T05:43:16.153Z,4.90
2023-01-10T05:45:55.088Z,4.90
2023-01-10T05:48:33.601Z,4.80
2023-01-10T05:51:06.173Z,4.70
2023-01-10T05:53:53.105Z,4.60
2023-01-10T05:56:31.593Z,4.50
2023-01-10T05:59:06.587Z,4.50
2023-01-10T06:01:52.570Z,4.40
2023-01-10T06:04:25.307Z,4.40
2023-01-10T06:06:52.111Z,4.30
2023-01-10T06:09:18.767Z,4.30
2023-01-10T06:11:46.452Z,4.30
2023-01-10T06:14:13.075Z,4.30
2023-01-10T06:16:40.004Z,4.40
2023-01-10T06:19:06.726Z,4.40
2023-01-10T06:21:33.675Z,4.40
2023-01-10T06:24:00.439Z,4.50
2023-01-10T06:26:27.135Z,4.60
2023-01-10T06:29:02.796Z,4.60
2023-01-10T06:31:38.584Z,4.60
2023-01-10T06:34:05.376Z,4.70
2023-01-10T06:36:32.187Z,4.70
2023-01-10T06:38:59.032Z,4.80
2023-01-10T06:41:28.834Z,4.80
2023-01-10T06:44:04.741Z,4.90
2023-01-10T06:46:31.385Z,4.90
2023-01-10T06:49:01.260Z,5.00
2023-01-10T06:51:27.999Z,5.10
2023-01-10T06:53:54.634Z,5.10
2023-01-10T06:56:24.265Z,5.20
2023-01-10T06:58:50.973Z,5.30
2023-01-10T07:01:23.493Z,5.30
2023-01-10T07:03:50.245Z,5.40
2023-01-10T07:06:17.075Z,5.40
2023-01-10T07:09:04.079Z,5.40
2023-01-10T07:11:43.076Z,5.50
2023-01-10T07:14:15.904Z,5.50
2023-01-10T07:16:54.898Z,5.50
2023-01-10T07:19:21.849Z,5.60
2023-01-10T07:24:29.222Z,5.50
2023-01-10T07:26:56.175Z,5.50
2023-01-10T07:29:22.987Z,5.40
2023-01-10T07:31:56.756Z,5.40
2023-01-10T07:34:23.904Z,5.30
2023-01-10T07:46:44.085Z,5.10
2023-01-10T07:49:13.357Z,5.00
2023-01-10T07:54:32.228Z,4.90
2023-01-10T07:56:59.799Z,4.80
2023-01-10T09:01:30.842Z,4.90
2023-01-10T09:06:35.168Z,4.90
2023-01-10T09:09:02.052Z,4.90
2023-01-10T09:32:53.291Z,5.00
2023-01-10T09:35:26.644Z,5.00
2023-01-10T09:37:58.471Z,5.10
2023-01-10T09:43:46.290Z,5.10
2023-01-10T09:46:39.602Z,5.10
2023-01-10T09:49:54.875Z,5.10
2023-01-10T09:52:31.058Z,5.10
2023-01-10T09:58:08.922Z,5.10
2023-01-10T10:01:02.540Z,5.10
2023-01-10T10:07:24.017Z,5.20
2023-01-10T10:09:51.281Z,5.20
2023-01-10T10:13:16.789Z,5.20
2023-01-10T10:16:04.563Z,5.20
2023-01-10T10:19:06.880Z,5.20
2023-01-10T10:22:12.657Z,5.20
2023-01-10T10:28:59.691Z,5.20
2023-01-10T10:31:35.159Z,5.20
2023-01-10T10:34:30.121Z,5.30
2023-01-10T10:37:02.579Z,5.20
2023-01-10T10:42:50.365Z,5.30
2023-01-10T10:46:01.666Z,5.30
2023-01-10T10:51:39.471Z,5.30
2023-01-10T10:54:09.903Z,5.30
2023-01-10T10:56:36.842Z,5.30
2023-01-10T10:59:06.922Z,5.30
2023-01-10T11:01:42.256Z,5.30
2023-01-10T11:04:14.080Z,5.30
2023-01-10T11:06:45.401Z,5.30
2023-01-10T11:09:14.045Z,5.40
2023-01-10T11:11:46.747Z,5.40
2023-01-10T11:14:51.818Z,5.40
2023-01-10T11:17:23.029Z,5.50
2023-01-10T11:20:02.757Z,5.50
2023-01-10T11:22:39.943Z,5.50
2023-01-10T11:31:05.666Z,5.60
2023-01-10T11:33:36.061Z,5.60
2023-01-10T11:36:10.555Z,5.60
2023-01-10T11:38:43.712Z,5.60
2023-01-10T11:41:19.262Z,5.60
2023-01-10T11:46:30.654Z,5.70
2023-01-10T11:49:08.404Z,5.70
2023-01-10T11:54:41.480Z,5.70
2023-01-10T11:57:40.585Z,5.70
2023-01-10T14:30:40.051Z,5.90
2023-01-10T14:33:16.441Z,5.90
2023-01-10T14:35:50.162Z,5.90
2023-01-10T14:38:34.954Z,5.90
2023-01-10T14:41:11.690Z,5.90
2023-01-10T14:44:11.775Z,5.90
2023-01-10T14:50:46.252Z,5.80
2023-01-10T14:56:29.848Z,5.80
2023-01-10T14:58:56.611Z,5.80
2023-01-10T15:01:29.722Z,5.70
2023-01-10T15:04:18.281Z,5.80
2023-01-10T15:13:16.917Z,5.70
2023-01-10T15:15:49.966Z,5.70
2023-01-10T15:18:40.951Z,5.70
2023-01-10T15:21:23.043Z,5.80
2023-01-10T15:23:57.574Z,5.80
2023-01-10T15:26:37.560Z,5.80
2023-01-10T15:35:38.665Z,5.70
2023-01-10T15:38:20.567Z,5.70
2023-01-10T15:41:00.204Z,5.70
2023-01-10T15:43:33.127Z,5.70
2023-01-10T15:46:22.800Z,5.70
2023-01-10T15:49:02.513Z,5.70
2023-01-10T15:51:38.998Z,5.70
2023-01-10T15:57:44.539Z,5.60
2023-01-10T16:00:43.855Z,5.60
2023-01-10T16:03:35.554Z,5.60
2023-01-10T16:06:21.595Z,5.60
2023-01-10T16:09:22.296Z,5.60
2023-01-10T16:11:57.650Z,5.60
2023-01-10T16:14:27.555Z,5.60
2023-01-10T16:16:54.237Z,5.60
2023-01-10T16:19:24.043Z,5.60
2023-01-10T16:21:58.350Z,5.50
2023-01-10T16:24:35.878Z,5.50
2023-01-10T16:27:10.098Z,5.50
2023-01-10T16:29:42.348Z,5.50
2023-01-10T16:32:32.026Z,5.50
2023-01-10T16:35:09.550Z,5.50
2023-01-10T16:37:56.437Z,5.50
2023-01-10T16:40:58.469Z,5.50
2023-01-10T16:47:00.832Z,5.50
2023-01-10T16:49:36.622Z,5.50
2023-01-10T16:52:57.786Z,5.50
2023-01-10T16:55:37.449Z,5.50
2023-01-10T16:58:04.632Z,5.50
2023-01-10T17:00:37.713Z,5.50
2023-01-10T17:03:24.714Z,5.50
2023-01-10T17:06:06.921Z,5.50
2023-01-10T17:08:48.967Z,5.50
2023-01-10T17:11:37.414Z,5.50
2023-01-10T17:14:04.575Z,5.50
2023-01-10T17:16:31.996Z,5.50
2023-01-10T17:18:58.704Z,5.50
2023-01-10T17:21:37.662Z,5.50
2023-01-10T17:24:04.697Z,5.50
2023-01-10T17:26:31.389Z,5.50
2023-01-10T17:28:58.134Z,5.50
2023-01-10T17:31:24.945Z,5.60
2023-01-10T17:36:33.344Z,5.60
2023-01-10T17:39:15.398Z,5.70
2023-01-10T17:41:42.238Z,5.70
2023-01-10T17:44:08.978Z,5.70
2023-01-10T17:46:46.003Z,5.80
2023-01-10T17:49:13.507Z,5.80
2023-01-10T17:51:50.729Z,5.80
2023-01-10T17:54:17.799Z,5.80
2023-01-10T17:56:44.663Z,5.90
2023-01-10T17:59:11.425Z,5.90
2023-01-10T18:01:38.302Z,5.90
2023-01-10T18:04:07.347Z,6.00
2023-01-10T18:09:37.420Z,6.10
2023-01-10T18:12:04.538Z,6.10
2023-01-10T18:14:31.322Z,6.20
2023-01-10T18:16:58.227Z,6.20
2023-01-10T18:19:25.054Z,6.20
2023-01-10T18:21:53.117Z,6.20
2023-01-10T18:24:23.218Z,6.30
2023-01-10T18:29:49.604Z,6.30
2023-01-10T18:35:47.328Z,6.40
2023-01-10T18:49:58.468Z,6.60
2023-01-10T18:53:06.146Z,6.60
2023-01-10T18:55:34.416Z,6.70
2023-01-10T18:58:21.052Z,6.70
2023-01-10T19:25:40.485Z,7.00
2023-01-10T19:31:02.741Z,7.10
2023-01-10T20:03:02.541Z,7.30
2023-01-10T20:05:29.768Z,7.40
2023-01-10T20:07:56.410Z,7.40
2023-01-10T20:10:23.157Z,7.40
2023-01-10T20:12:57.218Z,7.40
2023-01-10T20:15:27.373Z,7.40
2023-01-10T20:17:54.216Z,7.50
2023-01-10T20:20:20.939Z,7.50
2023-01-10T20:22:59.232Z,7.60
2023-01-10T20:25:30.608Z,7.50
2023-01-10T20:30:38.773Z,7.60
2023-01-10T20:33:05.828Z,7.60
2023-01-10T20:35:37.010Z,7.70
2023-01-10T20:38:06.730Z,7.70
2023-01-10T20:40:33.616Z,7.70
2023-01-10T20:43:00.367Z,7.70
2023-01-10T20:45:27.074Z,7.80
2023-01-10T20:47:54.351Z,7.80
2023-01-10T20:50:25.840Z,7.80
2023-01-10T20:52:52.555Z,7.80
2023-01-10T20:55:29.931Z,7.80
2023-01-10T20:57:56.682Z,7.80
2023-01-10T21:00:26.031Z,7.90
2023-01-10T21:02:55.778Z,7.90
2023-01-10T21:05:32.039Z,7.90
2023-01-10T21:08:11.839Z,7.90
2023-01-10T21:18:48.718Z,8.00
2023-01-10T21:21:18.506Z,8.00
2023-01-10T21:23:56.250Z,8.00
2023-01-10T21:26:23.685Z,8.10
2023-01-10T21:28:51.290Z,8.10
2023-01-10T21:31:22.353Z,8.10
2023-01-10T21:33:53.715Z,8.20
2023-01-10T21:36:23.102Z,8.10
2023-01-10T21:39:00.165Z,8.20
2023-01-10T21:41:35.835Z,8.20
2023-01-10T21:44:28.946Z,8.20
2023-01-10T21:47:07.960Z,8.20
2023-01-10T21:50:15.813Z,8.30
2023-01-10T21:52:43.468Z,8.30
2023-01-10T21:55:15.970Z,8.30
2023-01-10T21:57:43.158Z,8.40
2023-01-10T22:00:11.135Z,8.40
2023-01-10T22:02:41.001Z,8.40
2023-01-10T22:05:18.125Z,8.50
2023-01-10T22:07:45.373Z,8.50
2023-01-10T22:13:25.255Z,8.60
2023-01-10T22:24:38.951Z,8.70
2023-01-10T22:32:23.448Z,8.80
2023-01-10T22:34:56.544Z,8.80
2023-01-10T22:37:32.709Z,8.80
2023-01-10T22:40:02.924Z,8.90
2023-01-10T22:42:40.207Z,8.90
2023-01-10T22:45:45.381Z,8.90
2023-01-10T22:48:19.134Z,8.90
2023-01-10T22:50:55.812Z,8.90
2023-01-10T22:53:34.488Z,9.00
2023-01-10T22:56:09.269Z,9.00
2023-01-10T22:58:45.206Z,9.00
2023-01-10T23:01:20.788Z,9.00
2023-01-10T23:03:54.138Z,9.00
2023-01-10T23:06:30.794Z,9.10
2023-01-10T23:09:07.216Z,9.10
2023-01-10T23:11:46.192Z,9.10
2023-01-10T23:14:19.616Z,9.10
2023-01-10T23:16:52.352Z,9.10
2023-01-10T23:19:24.571Z,9.20
2023-01-10T23:22:00.475Z,9.20
2023-01-10T23:24:29.951Z,9.20
2023-01-10T23:27:05.581Z,9.20
2023-01-10T23:29:32.382Z,9.20
2023-01-10T23:32:12.713Z,9.30
2023-01-10T23:50:50.192Z,9.40
